NCAR-RAP Real-Time Weather Data

Output produced by METARs form (19 June 2019  12:05 UTC)
found at http://weather.rap.ucar.edu/surface/
 
KHSV 191153Z 23004KT 10SM SCT007 BKN060 BKN100 24/23 A2987 RMK AO2 SLP105 70006 T02390228 10239 20222 51003
KHSV 191053Z 20004KT 9SM OVC006 23/22 A2986 RMK AO2 SLP104 T02280222
KHSV 191026Z AUTO 21005KT 10SM BKN007 BKN021 23/22 A2987 RMK AO2 T02280217
KHSV 191017Z AUTO 21006KT 10SM SCT008 SCT012 23/22 A2987 RMK AO2 T02280217
KHSV 190953Z AUTO 24005KT 10SM SCT011 23/22 A2987 RMK AO2 SLP107 T02280222
KHSV 190943Z AUTO 24007KT 10SM SCT011 23/22 A2986 RMK AO2 T02280222
KHSV 190933Z AUTO 24007KT 10SM BKN011 BKN014 23/22 A2986 RMK AO2 CIG 007V013 T02280222
KHSV 190853Z AUTO 24006KT 10SM BKN008 23/22 A2986 RMK AO2 CIG 006V011 SLP102 T02280222 55005
KHSV 190839Z AUTO 23006KT 10SM SCT007 BKN100 23/22 A2986 RMK AO2 T02280222
KHSV 190804Z AUTO 24006KT 10SM BKN007 23/23 A2986 RMK AO2 T02330228
KHSV 190753Z AUTO 24007KT 10SM SCT008 BKN025 23/23 A2985 RMK AO2 SLP101 T02330228
KHSV 190713Z AUTO 23005KT 10SM SCT008 BKN028 OVC100 23/23 A2986 RMK AO2 T02330228
KHSV 190653Z AUTO 23008KT 10SM BKN008 BKN013 OVC095 23/23 A2986 RMK AO2 SLP104 T02330228
KHSV 190612Z AUTO 21003KT 10SM BKN008 BKN085 23/22 A2987 RMK AO2 CIG 007V012 T02280222
KHSV 190553Z AUTO 00000KT 10SM FEW040 SCT065 BKN085 23/22 A2987 RMK AO2 SLP107 T02280222 10256 20228 403060228 58001
KHSV 190453Z 20003KT 10SM FEW039 OVC070 23/22 A2989 RMK AO2 SLP112 T02280222
KHSV 190417Z 18003KT 10SM SCT026 SCT049 BKN075 23/22 A2988 RMK AO2 T02280222
KHSV 190353Z 19003KT 10SM OVC025 23/22 A2988 RMK AO2 SLP110 T02280222
KHSV 190332Z 18007KT 10SM FEW010 BKN024 BKN110 23/22 A2988 RMK AO2 T02280222
KHSV 190253Z 16006KT 10SM SCT047 BKN120 23/22 A2987 RMK AO2 SLP109 T02330222 53001
KHSV 190225Z 15007KT 10SM FEW010 SCT033 OVC047 23/22 A2987 RMK AO2 T02330222
KHSV 190211Z 16007KT 10SM FEW009 BKN029 OVC035 23/22 A2987 RMK AO2 T02330222
KHSV 190202Z 13007KT 10SM FEW011 OVC031 24/23 A2987 RMK AO2 T02390228
KHSV 190153Z 12005KT 10SM BKN029 OVC034 23/23 A2987 RMK AO2 SLP108 T02330228
KHSV 190135Z 13005KT 10SM FEW020 FEW026 OVC032 24/22 A2987 RMK AO2 T02390222
KHSV 190109Z 17008KT 10SM BKN025 BKN032 OVC055 24/22 A2987 RMK AO2 T02440222
KHSV 190053Z 21004KT 10SM FEW033 BKN055 OVC110 25/23 A2987 RMK AO2 SLP108 T02500233
KHSV 182353Z 22003KT 10SM BKN065 OVC090 26/23 A2987 RMK AO2 LTG DSNT W RAE35 SLP108 P0001 60003 T02560233 10306 20244 51000
KHSV 182253Z 00000KT 3SM -RA BR SCT025 BKN032 OVC060 24/23 A2987 RMK AO2 RAB2154 TSE43 SLP108 P0002 T02440233
KHSV 182249Z 31003KT 4SM -RA BR FEW023 BKN036 OVC060 24/23 A2987 RMK AO2 RAB2154 TSE43 P0002
KHSV 182153Z 34008KT 10SM TS BKN035CB BKN043 OVC060 25/21 A2987 RMK AO2 LTG DSNT N AND NW TSB38 SLP108 OCNL LTGICCCCG N TS N MOV NE T02500211
KHSV 182144Z 33008KT 300V360 10SM TS BKN038CB BKN047 BKN060 25/21 A2987 RMK AO2 LTG DSNT N AND NW TSB38 OCNL LTGICCCCG N AND DSNT SW TS N MOV NE T02500211
KHSV 182053Z COR 15010KT 10SM SCT037TCU BKN048 BKN060 29/21 A2987 RMK AO2 SLP107 T02940211 TCU VC SW-NW 56025
KHSV 181953Z 18006KT 10SM FEW039 BKN047 BKN070 29/21 A2989 RMK AO2 SLP114 T02890211
KHSV 181853Z 19007KT 10SM BKN038 BKN044 BKN075 29/21 A2992 RMK AO2 SLP124 T02890211
KHSV 181809Z 20006KT 10SM BKN031 OVC050 28/21 A2994 RMK AO2 T02830206
KHSV 181753Z 19007KT 10SM BKN028 BKN049 BKN250 28/21 A2995 RMK AO2 SLP132 60003 T02830211 10283 20228 58013
KHSV 181653Z 19006KT 10SM BKN018 BKN180 BKN250 27/23 A2997 RMK AO2 SLP141 T02720228
KHSV 181642Z 23005KT 10SM FEW015 BKN020 BKN250 26/23 A2997 RMK AO2 T02610228